Time;durP1;ratioP1;P1;durP2;ratioP2;P2;SDS_P1;SDS_P2;PMS_P1;PMS_P2;Temp;Humidity;BMP_temperature;BMP_pressure;BME280_temperature;BME280_humidity;BME280_pressure;Samples;Min_cycle;Max_cycle;Signal;HPM_P1;HPM_P2
2020/12/16 00:00:11;;;;;;;12.38;3.00;;;10.00;94.10;;;;;;4993459;28;20034;-74
2020/12/16 00:02:38;;;;;;;7.68;2.45;;;10.00;94.10;;;;;;4993939;28;20022;-74
2020/12/16 00:05:07;;;;;;;6.10;2.33;;;10.00;94.10;;;;;;4993210;28;20483;-74
2020/12/16 00:07:33;;;;;;;10.90;2.97;;;10.00;94.20;;;;;;4994175;28;20042;-74
2020/12/16 00:09:58;;;;;;;5.20;2.25;;;10.00;94.10;;;;;;4995543;28;20027;-74
2020/12/16 00:12:24;;;;;;;8.68;2.42;;;10.00;94.10;;;;;;4976977;28;20026;-75
2020/12/16 00:14:50;;;;;;;9.00;2.50;;;10.00;94.20;;;;;;4977736;28;20022;-73
2020/12/16 00:17:16;;;;;;;6.07;2.05;;;10.00;94.20;;;;;;4995134;28;20031;-73
2020/12/16 00:19:42;;;;;;;7.20;2.05;;;10.00;94.20;;;;;;4994018;28;20029;-74
2020/12/16 00:22:08;;;;;;;4.07;1.70;;;10.00;94.20;;;;;;4976846;28;20022;-74
2020/12/16 00:24:33;;;;;;;9.63;2.40;;;10.00;94.20;;;;;;4992591;28;20025;-74
2020/12/16 00:26:59;;;;;;;7.15;2.10;;;10.00;94.20;;;;;;4994131;28;20481;-74
2020/12/16 00:29:24;;;;;;;11.70;2.45;;;10.00;94.10;;;;;;4992537;28;20037;-74
2020/12/16 00:31:50;;;;;;;7.60;2.40;;;10.00;94.10;;;;;;4976684;28;20030;-75
2020/12/16 00:34:16;;;;;;;7.88;3.03;;;10.00;94.10;;;;;;4993703;28;20024;-75
2020/12/16 00:36:42;;;;;;;9.05;2.58;;;10.00;94.10;;;;;;4993386;28;20030;-75
2020/12/16 00:39:10;;;;;;;6.38;2.17;;;10.00;94.10;;;;;;4976388;28;20076;-76
2020/12/16 00:41:35;;;;;;;8.73;2.38;;;10.00;94.20;;;;;;4975852;28;20368;-75
2020/12/16 00:44:03;;;;;;;7.03;2.00;;;10.00;94.10;;;;;;4994022;28;20064;-75
2020/12/16 00:46:28;;;;;;;7.35;2.22;;;9.90;94.10;;;;;;4993085;28;20035;-75
2020/12/16 00:48:54;;;;;;;14.57;3.13;;;9.90;94.10;;;;;;4976374;28;20018;-74
2020/12/16 00:51:20;;;;;;;10.63;2.33;;;9.90;94.10;;;;;;4976990;28;20027;-74
2020/12/16 00:53:46;;;;;;;5.72;1.90;;;9.90;94.10;;;;;;4976094;28;20038;-74
2020/12/16 00:56:11;;;;;;;5.50;1.70;;;10.00;94.10;;;;;;4976909;28;20120;-74
2020/12/16 00:58:37;;;;;;;9.63;2.30;;;10.00;94.10;;;;;;4993527;28;20046;-74
2020/12/16 01:01:04;;;;;;;10.55;2.13;;;9.90;94.10;;;;;;4976864;28;20049;-74
2020/12/16 01:03:30;;;;;;;10.32;2.58;;;10.00;94.10;;;;;;4976341;28;20037;-74
2020/12/16 01:05:55;;;;;;;8.40;2.60;;;10.00;94.10;;;;;;4994178;28;20046;-74
2020/12/16 01:08:21;;;;;;;9.50;2.40;;;9.90;94.00;;;;;;4993801;28;20030;-74
2020/12/16 01:10:47;;;;;;;13.85;2.20;;;9.90;94.00;;;;;;4993514;28;20030;-74
2020/12/16 01:13:13;;;;;;;8.07;2.50;;;9.90;94.00;;;;;;4992721;28;20085;-74
2020/12/16 01:15:39;;;;;;;10.85;2.70;;;10.00;94.00;;;;;;4993549;28;20081;-74
2020/12/16 01:18:04;;;;;;;10.38;2.53;;;9.90;94.00;;;;;;4991878;28;20058;-74
2020/12/16 01:20:30;;;;;;;6.80;2.42;;;9.90;94.20;;;;;;4993397;28;20027;-74
2020/12/16 01:22:56;;;;;;;5.65;2.00;;;9.90;94.00;;;;;;4993308;28;20022;-74
2020/12/16 01:25:22;;;;;;;8.02;2.10;;;9.90;94.00;;;;;;4993863;28;20065;-74
2020/12/16 01:27:55;;;;;;;8.82;2.40;;;9.90;94.00;;;;;;4975914;28;20136;-74
2020/12/16 01:30:21;;;;;;;6.05;2.67;;;9.90;94.00;;;;;;4993864;28;20458;-74
2020/12/16 01:32:50;;;;;;;10.88;2.47;;;9.80;94.00;;;;;;4993050;28;20027;-74
2020/12/16 01:35:16;;;;;;;10.65;2.60;;;9.80;94.00;;;;;;4993743;28;20026;-74
2020/12/16 01:37:42;;;;;;;8.88;2.22;;;9.80;94.00;;;;;;4993179;28;20026;-74
2020/12/16 01:40:09;;;;;;;7.60;2.13;;;9.80;94.00;;;;;;4993278;28;20026;-74
2020/12/16 01:42:36;;;;;;;6.97;1.95;;;9.80;94.00;;;;;;4993009;28;20018;-74
2020/12/16 01:45:11;;;;;;;9.75;2.40;;;9.80;94.00;;;;;;4993441;28;20085;-74
2020/12/16 01:47:36;;;;;;;12.07;2.47;;;9.80;94.00;;;;;;4992896;28;20041;-74
2020/12/16 01:50:05;;;;;;;5.05;1.98;;;9.80;94.00;;;;;;4993448;28;20026;-74
2020/12/16 01:52:31;;;;;;;7.72;1.95;;;9.80;94.00;;;;;;4975388;28;20023;-74
2020/12/16 01:54:59;;;;;;;7.53;2.13;;;9.80;94.00;;;;;;4975773;28;20390;-74
2020/12/16 01:57:25;;;;;;;6.93;2.03;;;9.80;94.00;;;;;;4975823;28;20022;-74
2020/12/16 01:59:52;;;;;;;6.40;2.00;;;9.80;94.00;;;;;;4975150;28;20062;-74
2020/12/16 02:02:19;;;;;;;4.95;1.85;;;9.80;94.00;;;;;;4993305;28;20023;-74
2020/12/16 02:04:47;;;;;;;4.57;1.98;;;9.80;94.00;;;;;;4992319;28;20034;-73
2020/12/16 02:07:14;;;;;;;6.63;2.00;;;9.80;94.00;;;;;;4993064;28;20027;-73
2020/12/16 02:09:47;;;;;;;9.57;2.05;;;9.80;94.00;;;;;;4992563;28;20030;-74
2020/12/16 02:12:19;;;;;;;7.00;2.05;;;9.70;94.00;;;;;;4975578;28;20030;-73
2020/12/16 02:14:45;;;;;;;9.02;1.92;;;9.70;94.10;;;;;;4974709;28;20022;-74
2020/12/16 02:17:13;;;;;;;4.88;2.20;;;9.70;94.10;;;;;;4975528;28;20022;-74
2020/12/16 02:19:48;;;;;;;7.80;2.10;;;9.70;94.10;;;;;;4992613;28;20069;-74
2020/12/16 02:22:13;;;;;;;8.43;2.65;;;9.70;94.10;;;;;;4975573;28;20053;-73
2020/12/16 02:24:41;;;;;;;8.48;2.28;;;9.70;94.10;;;;;;4992379;28;20058;-73
2020/12/16 02:27:09;;;;;;;5.05;1.80;;;9.70;94.00;;;;;;4992916;28;20144;-74
2020/12/16 02:29:36;;;;;;;5.93;1.75;;;9.70;94.00;;;;;;4992505;28;20462;-75
2020/12/16 02:32:02;;;;;;;5.35;1.58;;;9.70;94.00;;;;;;4975323;28;20069;-75
2020/12/16 02:34:28;;;;;;;10.45;2.72;;;9.70;94.00;;;;;;4993145;28;20030;-75
2020/12/16 02:36:54;;;;;;;12.48;2.28;;;9.70;94.00;;;;;;4992512;28;20034;-74
2020/12/16 02:39:20;;;;;;;8.35;2.47;;;9.70;94.00;;;;;;4975212;28;20113;-74
2020/12/16 02:41:45;;;;;;;4.50;2.00;;;9.70;94.00;;;;;;4990926;28;20046;-74
2020/12/16 02:44:12;;;;;;;6.57;2.05;;;9.70;94.00;;;;;;4992700;28;20469;-74
2020/12/16 02:46:38;;;;;;;5.82;2.05;;;9.70;93.90;;;;;;4991810;28;20038;-74
2020/12/16 02:49:04;;;;;;;3.60;1.70;;;9.70;93.90;;;;;;4991630;28;20465;-74
2020/12/16 02:51:30;;;;;;;9.30;2.15;;;9.70;93.90;;;;;;4992611;28;20022;-74
2020/12/16 02:53:56;;;;;;;7.00;1.83;;;9.70;93.90;;;;;;4974745;28;20562;-74
2020/12/16 02:56:22;;;;;;;6.47;2.30;;;9.60;93.90;;;;;;4992798;28;20058;-75
2020/12/16 02:58:48;;;;;;;12.18;2.83;;;9.60;93.90;;;;;;4992059;28;20057;-77
2020/12/16 03:01:14;;;;;;;9.70;2.28;;;9.60;93.90;;;;;;4992526;28;20095;-75
2020/12/16 03:03:39;;;;;;;7.20;2.65;;;9.60;93.90;;;;;;4992068;28;20128;-75
2020/12/16 03:06:05;;;;;;;5.40;1.83;;;9.60;93.90;;;;;;4992435;28;20030;-75
2020/12/16 03:08:31;;;;;;;4.47;2.30;;;9.60;93.90;;;;;;4992535;28;20027;-74
2020/12/16 03:10:57;;;;;;;4.78;1.73;;;9.60;93.90;;;;;;4992038;28;20022;-74
2020/12/16 03:13:22;;;;;;;4.75;1.90;;;9.60;93.90;;;;;;4974851;28;20018;-74
2020/12/16 03:15:48;;;;;;;6.60;2.35;;;9.50;93.90;;;;;;4991509;28;20485;-74
2020/12/16 03:18:13;;;;;;;7.03;2.67;;;9.50;93.90;;;;;;4991923;28;20164;-74
2020/12/16 03:20:39;;;;;;;7.43;2.28;;;9.50;93.90;;;;;;4991364;28;20030;-75
2020/12/16 03:23:05;;;;;;;4.03;1.67;;;9.50;94.00;;;;;;4991170;28;20105;-75
2020/12/16 03:25:30;;;;;;;4.70;2.15;;;9.50;93.90;;;;;;4991718;28;20026;-75
2020/12/16 03:27:56;;;;;;;7.18;2.03;;;9.50;93.90;;;;;;4990691;28;20042;-75
2020/12/16 03:30:21;;;;;;;7.40;2.30;;;9.50;93.80;;;;;;4991703;28;20081;-75
2020/12/16 03:32:47;;;;;;;4.07;1.60;;;9.50;93.80;;;;;;4973863;28;20079;-75
2020/12/16 03:35:13;;;;;;;6.47;1.90;;;9.50;93.90;;;;;;4991687;28;20026;-75
2020/12/16 03:37:39;;;;;;;6.82;2.28;;;9.40;93.80;;;;;;4989750;28;20509;-75
2020/12/16 03:40:05;;;;;;;7.30;2.33;;;9.50;93.90;;;;;;4991820;28;20054;-75
2020/12/16 03:42:30;;;;;;;6.10;1.70;;;9.40;93.80;;;;;;4995222;28;20033;-75
2020/12/16 03:44:56;;;;;;;5.97;1.88;;;9.40;93.90;;;;;;4994535;28;20022;-75
2020/12/16 03:47:21;;;;;;;7.00;1.83;;;9.40;93.90;;;;;;4995831;28;20176;-74
2020/12/16 03:49:47;;;;;;;5.00;1.73;;;9.40;93.90;;;;;;4995168;28;20419;-74
2020/12/16 03:52:13;;;;;;;6.93;2.42;;;9.40;93.80;;;;;;4995323;28;20026;-74
2020/12/16 03:54:38;;;;;;;5.47;1.98;;;9.40;93.80;;;;;;4977288;28;20058;-74
2020/12/16 03:57:04;;;;;;;4.53;1.70;;;9.40;93.90;;;;;;4995557;28;20482;-74
2020/12/16 03:59:30;;;;;;;6.10;2.33;;;9.40;93.80;;;;;;4994142;28;20072;-74
2020/12/16 04:01:55;;;;;;;6.88;1.90;;;9.40;93.80;;;;;;4977048;28;20033;-75
2020/12/16 04:04:21;;;;;;;8.70;1.80;;;9.40;93.80;;;;;;4995453;28;20030;-75
2020/12/16 04:06:47;;;;;;;3.55;1.63;;;9.40;93.80;;;;;;4977351;28;20042;-75
2020/12/16 04:09:12;;;;;;;5.10;2.00;;;9.40;93.80;;;;;;4995024;28;20549;-75
2020/12/16 04:11:38;;;;;;;6.07;2.10;;;9.40;93.80;;;;;;4977313;28;20113;-74
2020/12/16 04:14:04;;;;;;;3.83;1.73;;;9.40;93.80;;;;;;4977709;28;20169;-74
2020/12/16 04:16:30;;;;;;;3.83;1.80;;;9.30;93.80;;;;;;4993982;28;20030;-74
2020/12/16 04:18:55;;;;;;;4.82;1.75;;;9.30;93.80;;;;;;4994555;28;20470;-74
2020/12/16 04:21:21;;;;;;;4.72;1.85;;;9.30;93.80;;;;;;4995212;28;20134;-75
2020/12/16 04:23:47;;;;;;;6.85;1.95;;;9.30;94.10;;;;;;4994037;28;20030;-74
2020/12/16 04:26:13;;;;;;;5.20;1.80;;;9.30;93.90;;;;;;4994951;28;20098;-74
2020/12/16 04:28:39;;;;;;;5.95;1.90;;;9.30;93.90;;;;;;4994461;28;20029;-75
2020/12/16 04:31:07;;;;;;;4.95;1.73;;;9.30;93.80;;;;;;4993046;28;20023;-75
2020/12/16 04:33:33;;;;;;;6.53;1.88;;;9.30;93.90;;;;;;4994842;28;20026;-74
2020/12/16 04:35:59;;;;;;;6.72;1.85;;;9.30;93.90;;;;;;4992991;28;20451;-74
2020/12/16 04:38:24;;;;;;;5.85;1.83;;;9.30;93.80;;;;;;4994571;28;20018;-74
2020/12/16 04:40:50;;;;;;;3.55;1.70;;;9.30;93.80;;;;;;4994293;28;20030;-74
2020/12/16 04:43:21;;;;;;;6.40;1.88;;;9.30;93.80;;;;;;4994767;28;20026;-75
2020/12/16 04:45:48;;;;;;;8.02;2.45;;;9.30;93.80;;;;;;4994165;28;20026;-75
2020/12/16 04:48:15;;;;;;;5.57;2.08;;;9.30;93.80;;;;;;4977460;28;20026;-74
2020/12/16 04:50:43;;;;;;;6.30;2.17;;;9.20;93.90;;;;;;4994086;28;20080;-75
2020/12/16 04:53:14;;;;;;;14.15;4.00;;;9.20;93.90;;;;;;4993301;28;20033;-74
2020/12/16 04:55:41;;;;;;;9.20;2.30;;;9.30;93.90;;;;;;4994168;28;20133;-75
2020/12/16 04:58:08;;;;;;;9.02;2.63;;;9.20;93.80;;;;;;4994424;28;20077;-74
2020/12/16 05:00:34;;;;;;;5.30;2.15;;;9.30;93.90;;;;;;4993058;28;20512;-74
2020/12/16 05:03:08;;;;;;;4.68;2.00;;;9.30;93.90;;;;;;4993434;28;20356;-74
2020/12/16 05:05:34;;;;;;;6.45;2.38;;;9.30;93.80;;;;;;4994390;28;20031;-74
2020/12/16 05:08:11;;;;;;;5.13;2.25;;;9.30;94.10;;;;;;4992077;28;20030;-74
2020/12/16 05:10:39;;;;;;;8.23;2.20;;;9.30;94.10;;;;;;4994311;28;20470;-73
2020/12/16 05:13:10;;;;;;;6.10;2.28;;;9.30;93.90;;;;;;4992913;28;20405;-74
2020/12/16 05:15:37;;;;;;;5.28;2.10;;;9.30;93.90;;;;;;4993755;28;20022;-74
2020/12/16 05:18:10;;;;;;;8.77;2.50;;;9.30;93.90;;;;;;4992979;28;20477;-75
2020/12/16 05:20:41;;;;;;;6.63;1.95;;;9.30;93.90;;;;;;4992663;28;20418;-74
2020/12/16 05:23:07;;;;;;;;;;;9.20;93.80;;;;;;4994512;28;20026;-74
2020/12/16 05:25:34;;;;;;;9.82;2.67;;;9.20;93.90;;;;;;4993875;28;19929;-75
2020/12/16 05:28:00;;;;;;;8.57;2.20;;;9.20;93.90;;;;;;4993217;28;20034;-75
2020/12/16 05:30:26;;;;;;;6.70;2.22;;;9.20;93.90;;;;;;4993960;28;20072;-75
2020/12/16 05:32:53;;;;;;;4.18;1.67;;;9.20;93.90;;;;;;4993299;28;20022;-75
2020/12/16 05:35:37;;;;;;;4.95;2.20;;;9.10;93.90;;;;;;4993691;28;20023;-75
2020/12/16 05:38:10;;;;;;;7.18;2.10;;;9.10;94.00;;;;;;4992851;28;20065;-75
2020/12/16 05:40:38;;;;;;;5.85;2.22;;;9.10;94.00;;;;;;4993494;28;20023;-75
2020/12/16 05:43:05;;;;;;;5.32;2.00;;;9.10;94.10;;;;;;4991611;28;20018;-75
2020/12/16 05:45:35;;;;;;;7.63;1.88;;;9.10;94.10;;;;;;4992204;28;20435;-75
2020/12/16 05:48:10;;;;;;;7.72;2.35;;;9.00;94.10;;;;;;4993052;28;20092;-76
2020/12/16 05:50:53;;;;;;;8.25;2.45;;;9.00;94.20;;;;;;4992328;28;20022;-74
2020/12/16 05:53:21;;;;;;;9.75;2.58;;;9.00;94.20;;;;;;4993574;28;20026;-75
2020/12/16 05:55:58;;;;;;;6.25;2.40;;;8.90;94.20;;;;;;4991637;28;20450;-75
2020/12/16 05:58:25;;;;;;;6.00;1.95;;;8.90;94.30;;;;;;4993074;28;20034;-74
2020/12/16 06:00:57;;;;;;;8.88;2.65;;;8.80;94.30;;;;;;4992276;28;20490;-75
2020/12/16 06:03:37;;;;;;;4.85;1.63;;;8.80;94.40;;;;;;4975595;28;20069;-75
2020/12/16 06:06:10;;;;;;;7.80;2.60;;;8.80;94.40;;;;;;4992504;28;20097;-75
2020/12/16 06:08:43;;;;;;;3.95;1.58;;;8.70;94.50;;;;;;4992957;28;20033;-74
2020/12/16 06:11:12;;;;;;;6.40;1.95;;;8.70;94.50;;;;;;4992644;28;20026;-75
2020/12/16 06:13:44;;;;;;;5.45;1.85;;;8.70;94.50;;;;;;4993344;28;20027;-74
2020/12/16 06:16:10;;;;;;;7.72;2.58;;;8.60;94.50;;;;;;4992410;28;20113;-74
2020/12/16 06:18:38;;;;;;;4.13;2.20;;;8.60;94.50;;;;;;4993128;28;20062;-75
2020/12/16 06:21:05;;;;;;;7.65;2.83;;;8.50;94.50;;;;;;4992865;28;20137;-82
2020/12/16 06:23:36;;;;;;;4.78;2.20;;;8.50;94.60;;;;;;4972853;28;20022;-73
2020/12/16 06:26:07;;;;;;;8.48;2.88;;;8.50;94.60;;;;;;4989911;28;20076;-72
2020/12/16 06:28:33;;;;;;;5.13;1.60;;;8.50;94.60;;;;;;4990877;28;20034;-73
2020/12/16 06:31:23;;;;;;;5.13;1.83;;;8.40;94.60;;;;;;4972436;28;20022;-73
2020/12/16 06:34:10;;;;;;;3.63;1.63;;;8.50;94.60;;;;;;4972082;28;20027;-74
2020/12/16 06:36:41;;;;;;;5.95;1.85;;;8.40;94.50;;;;;;4990046;28;20046;-73
2020/12/16 06:39:19;;;;;;;6.20;1.98;;;8.40;94.60;;;;;;4989134;28;20030;-75
2020/12/16 06:41:59;;;;;;;6.78;1.90;;;8.40;94.60;;;;;;4988718;28;20033;-73
2020/12/16 06:44:25;;;;;;;4.63;1.80;;;8.40;94.60;;;;;;4989083;28;20478;-72
2020/12/16 06:46:53;;;;;;;5.68;2.10;;;8.30;94.60;;;;;;4990029;28;20114;-73
2020/12/16 06:49:18;;;;;;;6.00;2.22;;;8.30;94.60;;;;;;4992554;28;20027;-74
2020/12/16 06:51:46;;;;;;;5.68;2.38;;;8.30;94.70;;;;;;4992514;28;20121;-75
2020/12/16 06:54:14;;;;;;;4.38;1.80;;;8.30;94.70;;;;;;4991552;28;20050;-75
2020/12/16 06:56:41;;;;;;;4.32;1.77;;;8.30;94.70;;;;;;4992456;28;20117;-75
2020/12/16 06:59:07;;;;;;;5.68;2.28;;;8.20;94.70;;;;;;4991595;28;20054;-75
2020/12/16 07:01:33;;;;;;;7.93;2.15;;;8.20;94.70;;;;;;4992568;28;20050;-75
2020/12/16 07:03:59;;;;;;;4.32;1.58;;;8.20;94.70;;;;;;4991678;28;20098;-73
2020/12/16 07:06:27;;;;;;;5.05;2.20;;;8.20;94.70;;;;;;4992202;28;20030;-73
2020/12/16 07:09:21;;;;;;;3.65;1.80;;;8.20;94.70;;;;;;4992068;28;20031;-74
2020/12/16 07:11:49;;;;;;;3.95;1.75;;;8.20;94.60;;;;;;4991971;28;20027;-74
2020/12/16 07:14:20;;;;;;;4.38;1.88;;;8.10;94.70;;;;;;4992349;28;20034;-74
2020/12/16 07:16:46;;;;;;;5.13;1.92;;;8.10;94.70;;;;;;4995466;28;20486;-73
2020/12/16 07:19:28;;;;;;;4.63;1.80;;;8.10;94.70;;;;;;4995547;28;20057;-74
2020/12/16 07:21:57;;;;;;;2.00;1.45;;;8.10;94.90;;;;;;4995473;28;20093;-74
2020/12/16 07:24:23;;;;;;;5.78;2.20;;;8.10;94.70;;;;;;4995695;28;20076;-74
2020/12/16 07:26:55;;;;;;;3.67;1.85;;;8.10;94.70;;;;;;4995702;28;20113;-74
2020/12/16 07:29:28;;;;;;;5.68;2.15;;;8.10;94.70;;;;;;4994658;28;20026;-74
2020/12/16 07:31:56;;;;;;;4.75;1.60;;;8.00;94.70;;;;;;4993649;28;20026;-75
2020/12/16 07:34:23;;;;;;;4.78;2.20;;;8.00;94.70;;;;;;4995871;28;20023;-75
2020/12/16 07:36:54;;;;;;;6.45;2.05;;;8.00;94.70;;;;;;4995689;28;20089;-74
2020/12/16 07:39:20;;;;;;;5.63;1.88;;;8.00;94.70;;;;;;4995720;28;20041;-75
2020/12/16 07:41:46;;;;;;;2.60;1.50;;;8.00;94.70;;;;;;4995647;28;20525;-74
2020/12/16 07:44:11;;;;;;;5.32;2.08;;;8.00;94.70;;;;;;4995001;28;20034;-74
2020/12/16 07:46:37;;;;;;;4.53;2.38;;;7.90;94.70;;;;;;4995734;28;20031;-74
2020/12/16 07:49:03;;;;;;;5.20;2.25;;;7.90;94.70;;;;;;4994845;28;20054;-75
2020/12/16 07:51:28;;;;;;;4.28;2.08;;;8.00;94.70;;;;;;4995889;28;20379;-75
2020/12/16 07:53:54;;;;;;;4.53;1.80;;;7.90;94.70;;;;;;4994493;28;20488;-75
2020/12/16 07:56:20;;;;;;;6.40;2.25;;;7.90;94.70;;;;;;4994130;28;20065;-75
2020/12/16 07:58:46;;;;;;;6.38;1.98;;;8.00;94.70;;;;;;4994089;28;20117;-74
2020/12/16 08:01:13;;;;;;;4.32;1.73;;;7.90;94.70;;;;;;4994434;28;20251;-75
2020/12/16 08:03:40;;;;;;;9.82;2.60;;;7.90;94.70;;;;;;4977878;28;20023;-74
2020/12/16 08:06:06;;;;;;;6.78;2.25;;;7.90;94.70;;;;;;4976995;28;20370;-74
2020/12/16 08:08:41;;;;;;;6.90;2.28;;;7.90;94.70;;;;;;4995079;28;20459;-75
2020/12/16 08:11:12;;;;;;;5.50;2.22;;;7.90;94.70;;;;;;4994493;28;20030;-75
2020/12/16 08:13:38;;;;;;;5.40;2.10;;;7.90;94.70;;;;;;4995050;28;20022;-74
2020/12/16 08:16:05;;;;;;;4.50;1.70;;;7.90;94.70;;;;;;4994714;28;20022;-74
2020/12/16 08:18:30;;;;;;;5.43;1.90;;;7.90;94.70;;;;;;4994942;28;20034;-74
2020/12/16 08:20:56;;;;;;;5.75;1.90;;;7.90;94.70;;;;;;4976862;28;20383;-75
2020/12/16 08:23:21;;;;;;;3.85;1.60;;;7.90;94.70;;;;;;4977648;28;20030;-74
2020/12/16 08:25:47;;;;;;;5.25;2.15;;;7.90;94.70;;;;;;4994762;28;20034;-74
2020/12/16 08:28:13;;;;;;;5.13;1.83;;;7.90;94.70;;;;;;4993992;28;20076;-75
2020/12/16 08:30:39;;;;;;;5.82;2.10;;;7.90;94.70;;;;;;4977132;28;20023;-74
2020/12/16 08:33:13;;;;;;;3.53;1.45;;;7.90;94.70;;;;;;4994033;28;20451;-74
2020/12/16 08:35:39;;;;;;;4.03;1.60;;;8.00;94.70;;;;;;4994713;28;20126;-74
2020/12/16 08:38:09;;;;;;;6.38;2.00;;;7.90;94.70;;;;;;4994208;28;20198;-74
2020/12/16 08:40:38;;;;;;;4.15;1.70;;;8.00;94.70;;;;;;4994665;28;20462;-74
2020/12/16 08:43:24;;;;;;;6.22;2.28;;;7.90;94.70;;;;;;4993956;28;20060;-74
2020/12/16 08:46:10;;;;;;;5.80;2.28;;;8.00;94.70;;;;;;4994567;28;20055;-74
2020/12/16 08:48:44;;;;;;;4.82;1.95;;;8.00;94.70;;;;;;4976937;28;20457;-74
2020/12/16 08:51:12;;;;;;;5.82;1.98;;;8.00;94.70;;;;;;4994146;28;20034;-75
2020/12/16 08:53:54;;;;;;;4.90;2.00;;;8.00;94.70;;;;;;4994312;28;20076;-75
2020/12/16 08:56:55;;;;;;;6.35;2.38;;;8.00;94.70;;;;;;4993605;28;20492;-75
2020/12/16 08:59:30;;;;;;;4.20;2.00;;;8.00;94.70;;;;;;4990943;28;20085;-75
2020/12/16 09:02:02;;;;;;;4.22;2.05;;;8.00;94.70;;;;;;4992970;28;20109;-75
2020/12/16 09:04:32;;;;;;;5.25;2.58;;;8.10;94.70;;;;;;4994257;28;20030;-75
2020/12/16 09:07:06;;;;;;;6.90;2.10;;;8.10;94.70;;;;;;4993780;28;20061;-77
2020/12/16 09:09:34;;;;;;;6.55;2.25;;;8.20;94.70;;;;;;4994275;28;20022;-74
2020/12/16 09:12:00;;;;;;;3.20;1.88;;;8.20;94.70;;;;;;4993382;28;20030;-76
2020/12/16 09:14:26;;;;;;;6.90;2.30;;;8.30;94.60;;;;;;4994099;28;20022;-75
2020/12/16 09:16:52;;;;;;;5.53;2.30;;;8.30;94.60;;;;;;4976449;28;20018;-75
2020/12/16 09:19:23;;;;;;;6.43;2.20;;;8.30;94.50;;;;;;4992206;28;20307;-75
2020/12/16 09:21:51;;;;;;;5.72;2.67;;;8.40;94.50;;;;;;4994076;28;20026;-75
2020/12/16 09:24:22;;;;;;;6.30;2.28;;;8.40;94.50;;;;;;4975783;28;20034;-75
2020/12/16 09:26:50;;;;;;;5.63;2.10;;;8.50;94.60;;;;;;4993729;28;20038;-76
2020/12/16 09:29:27;;;;;;;5.75;2.40;;;8.50;94.50;;;;;;4975501;28;20057;-75
2020/12/16 09:32:11;;;;;;;4.95;2.05;;;8.50;94.50;;;;;;4993696;28;20104;-75
2020/12/16 09:34:39;;;;;;;7.22;2.50;;;8.60;94.50;;;;;;4991965;28;20022;-75
2020/12/16 09:37:23;;;;;;;3.20;1.88;;;8.60;94.50;;;;;;4991771;28;20030;-75
2020/12/16 09:39:49;;;;;;;4.18;2.28;;;8.60;94.50;;;;;;4991661;28;20029;-75
2020/12/16 09:42:16;;;;;;;4.43;1.73;;;8.50;94.50;;;;;;4992864;28;20105;-75
2020/12/16 09:44:43;;;;;;;4.38;1.80;;;8.60;94.60;;;;;;4992117;28;20084;-74
2020/12/16 09:47:11;;;;;;;10.02;2.30;;;8.60;94.60;;;;;;4991099;28;20080;-75
2020/12/16 09:49:38;;;;;;;5.88;2.20;;;8.60;94.60;;;;;;4993380;28;20022;-74
2020/12/16 09:52:04;;;;;;;3.90;1.92;;;8.60;94.60;;;;;;4991492;28;20042;-75
2020/12/16 09:54:32;;;;;;;4.15;2.05;;;8.60;94.60;;;;;;4993194;28;20050;-74
2020/12/16 09:57:09;;;;;;;5.60;1.95;;;8.60;94.60;;;;;;4991883;28;20031;-74
2020/12/16 09:59:36;;;;;;;3.95;1.50;;;8.60;94.60;;;;;;4993352;28;20054;-74
2020/12/16 10:02:03;;;;;;;4.60;1.90;;;8.60;94.60;;;;;;4991456;28;20029;-81
2020/12/16 10:04:28;;;;;;;3.08;1.58;;;8.60;94.60;;;;;;4975703;28;20022;-74
2020/12/16 10:06:54;;;;;;;3.53;1.70;;;8.70;94.70;;;;;;4993163;28;20046;-74
2020/12/16 10:09:20;;;;;;;4.95;2.33;;;8.70;94.60;;;;;;4992455;28;20033;-74
2020/12/16 10:11:49;;;;;;;4.65;1.83;;;8.70;94.60;;;;;;4993046;28;20110;-74
2020/12/16 10:14:17;;;;;;;7.85;2.22;;;8.80;94.60;;;;;;4991097;28;20379;-74
2020/12/16 10:16:49;;;;;;;6.85;1.98;;;8.90;94.90;;;;;;4992892;28;20387;-74
2020/12/16 10:19:18;;;;;;;5.47;1.80;;;9.00;94.50;;;;;;4992325;28;20019;-74
2020/12/16 10:21:48;;;;;;;3.30;1.85;;;9.10;94.40;;;;;;4991560;28;20222;-74
2020/12/16 10:24:17;;;;;;;3.72;1.73;;;9.10;94.30;;;;;;4992622;28;20196;-74
2020/12/16 10:26:47;;;;;;;5.32;1.77;;;9.20;94.40;;;;;;4991514;28;20030;-74
2020/12/16 10:29:16;;;;;;;3.42;1.70;;;9.20;94.40;;;;;;4974555;28;20033;-74
2020/12/16 10:31:48;;;;;;;8.60;2.38;;;9.20;94.40;;;;;;4993064;28;20072;-74
2020/12/16 10:34:15;;;;;;;5.20;1.77;;;9.20;94.30;;;;;;4992044;28;20028;-74
2020/12/16 10:36:41;;;;;;;5.20;1.75;;;9.30;94.40;;;;;;4992636;28;20030;-74
2020/12/16 10:39:06;;;;;;;6.32;1.85;;;9.30;94.30;;;;;;4992107;28;20077;-75
2020/12/16 10:41:32;;;;;;;4.43;1.98;;;9.30;94.40;;;;;;4992862;28;20033;-74
2020/12/16 10:43:57;;;;;;;7.25;2.28;;;9.30;94.40;;;;;;4992283;28;20479;-74
2020/12/16 10:46:23;;;;;;;5.05;2.08;;;9.30;94.40;;;;;;4992023;28;20066;-74
2020/12/16 10:48:49;;;;;;;6.90;1.85;;;9.40;94.30;;;;;;4992496;28;20411;-74
2020/12/16 10:51:14;;;;;;;5.53;1.70;;;9.40;94.30;;;;;;4978445;28;20050;-74
2020/12/16 10:53:40;;;;;;;4.72;1.60;;;9.50;94.30;;;;;;4978612;28;20509;-75
2020/12/16 10:56:06;;;;;;;4.53;1.95;;;9.50;94.30;;;;;;4996247;28;20080;-80
2020/12/16 10:58:31;;;;;;;3.83;1.77;;;9.60;94.30;;;;;;4978987;28;20018;-74
2020/12/16 11:00:57;;;;;;;2.97;1.55;;;9.60;94.30;;;;;;4996623;28;20424;-74
2020/12/16 11:03:23;;;;;;;4.97;2.03;;;9.70;94.30;;;;;;4995819;28;20078;-74
2020/12/16 11:05:48;;;;;;;4.38;1.67;;;9.70;94.30;;;;;;4995005;28;20026;-74
2020/12/16 11:08:14;;;;;;;8.25;2.25;;;9.70;94.30;;;;;;4994487;28;20046;-74
2020/12/16 11:10:52;;;;;;;5.03;1.45;;;9.80;94.30;;;;;;4995411;28;20382;-75
2020/12/16 11:13:18;;;;;;;4.43;1.83;;;9.80;94.30;;;;;;4995864;28;20030;-73
2020/12/16 11:15:46;;;;;;;6.05;1.75;;;9.90;94.30;;;;;;4995936;28;20027;-74
2020/12/16 11:18:12;;;;;;;4.22;1.90;;;10.00;94.30;;;;;;4977715;28;20026;-74
2020/12/16 11:20:38;;;;;;;6.75;2.35;;;10.10;94.30;;;;;;4996286;28;20134;-73
2020/12/16 11:23:03;;;;;;;5.90;2.13;;;10.10;94.30;;;;;;4994590;28;20030;-73
2020/12/16 11:25:29;;;;;;;6.22;2.10;;;10.30;94.20;;;;;;4995230;28;20038;-74
2020/12/16 11:27:55;;;;;;;8.52;2.13;;;10.40;94.20;;;;;;4994744;28;20046;-74
2020/12/16 11:30:21;;;;;;;6.30;2.25;;;10.40;94.20;;;;;;4994013;28;20433;-75
2020/12/16 11:32:46;;;;;;;4.75;1.45;;;10.50;94.20;;;;;;4994587;28;20015;-74
2020/12/16 11:35:12;;;;;;;3.65;1.77;;;10.60;94.10;;;;;;4977678;28;20053;-74
2020/12/16 11:37:43;;;;;;;5.28;1.88;;;10.60;94.10;;;;;;4995973;28;20370;-74
2020/12/16 11:40:09;;;;;;;5.60;1.80;;;10.60;94.10;;;;;;4995599;28;20026;-81
2020/12/16 11:42:35;;;;;;;5.28;1.88;;;10.70;94.10;;;;;;4995599;28;20505;-75
2020/12/16 11:45:00;;;;;;;6.63;2.70;;;10.70;94.10;;;;;;4995671;28;20060;-74
2020/12/16 11:47:26;;;;;;;6.63;2.38;;;10.70;94.10;;;;;;4995041;28;20034;-74
2020/12/16 11:49:51;;;;;;;6.70;2.03;;;10.80;94.10;;;;;;4994154;28;20018;-74
2020/12/16 11:52:17;;;;;;;5.32;1.70;;;10.70;94.10;;;;;;4995165;28;20156;-74
2020/12/16 11:54:43;;;;;;;4.80;2.40;;;10.70;94.10;;;;;;4977861;28;20077;-74
2020/12/16 11:57:09;;;;;;;5.82;1.90;;;10.70;94.10;;;;;;4995452;28;20045;-74
2020/12/16 11:59:35;;;;;;;6.07;1.90;;;10.70;94.10;;;;;;4994954;28;20447;-74
2020/12/16 12:02:04;;;;;;;3.55;1.75;;;10.70;94.20;;;;;;4994600;28;20109;-74
2020/12/16 12:04:30;;;;;;;5.85;1.80;;;10.70;94.20;;;;;;4994766;28;20033;-74
2020/12/16 12:06:56;;;;;;;5.47;1.92;;;10.70;94.10;;;;;;4993760;28;20030;-74
2020/12/16 12:09:23;;;;;;;5.53;2.08;;;10.60;94.10;;;;;;4994519;28;20108;-74
2020/12/16 12:11:50;;;;;;;2.92;1.48;;;10.60;94.10;;;;;;4995023;28;20030;-74
2020/12/16 12:14:17;;;;;;;3.75;1.77;;;10.70;94.10;;;;;;4993107;28;20524;-74
2020/12/16 12:16:45;;;;;;;4.85;1.67;;;10.70;94.10;;;;;;4993789;28;20054;-74
2020/12/16 12:19:11;;;;;;;5.38;2.20;;;10.70;94.10;;;;;;4995016;28;20057;-74
2020/12/16 12:21:37;;;;;;;7.68;2.35;;;10.70;94.10;;;;;;4994876;28;20022;-74
2020/12/16 12:24:03;;;;;;;5.97;2.50;;;10.70;94.10;;;;;;4995087;28;20073;-75
2020/12/16 12:26:29;;;;;;;3.88;1.75;;;10.70;94.10;;;;;;4976961;28;20038;-74
2020/12/16 12:28:54;;;;;;;5.72;1.83;;;10.70;94.10;;;;;;4995431;28;20027;-74
2020/12/16 12:31:20;;;;;;;3.55;1.20;;;10.70;94.10;;;;;;4995939;28;20110;-74
2020/12/16 12:33:46;;;;;;;4.55;1.95;;;10.60;94.10;;;;;;4994619;28;20030;-75
2020/12/16 12:36:12;;;;;;;3.35;1.90;;;10.60;94.10;;;;;;4995144;28;20026;-75
2020/12/16 12:38:38;;;;;;;3.10;1.77;;;10.70;94.20;;;;;;4992950;28;20485;-74
2020/12/16 12:41:03;;;;;;;4.75;2.17;;;10.70;94.20;;;;;;4993288;28;20019;-74
2020/12/16 12:43:29;;;;;;;5.20;2.17;;;10.70;94.10;;;;;;4993849;28;20023;-74
2020/12/16 12:45:55;;;;;;;3.47;1.65;;;10.70;94.10;;;;;;4994246;28;20382;-74
2020/12/16 12:48:20;;;;;;;9.93;2.00;;;10.80;94.10;;;;;;4993873;28;20452;-74
2020/12/16 12:50:46;;;;;;;5.75;1.77;;;10.80;94.00;;;;;;4993206;28;20028;-74
2020/12/16 12:53:12;;;;;;;6.60;2.10;;;10.80;93.90;;;;;;4994218;28;20034;-74
2020/12/16 12:55:40;;;;;;;5.35;1.95;;;10.90;93.90;;;;;;4993446;28;20054;-74
2020/12/16 12:58:06;;;;;;;6.85;2.05;;;10.90;93.90;;;;;;4994379;28;20034;-74